sensor_id;sensor_type;location;lat;lon;timestamp;P1;durP1;ratioP1;P2;durP2;ratioP2
21101;SDS011;10709;49.006;12.100;2023-03-21T00:00:19;10.20;;;5.70;;
21101;SDS011;10709;49.006;12.100;2023-03-21T00:02:46;8.00;;;5.60;;
21101;SDS011;10709;49.006;12.100;2023-03-21T00:05:13;8.87;;;5.83;;
21101;SDS011;10709;49.006;12.100;2023-03-21T00:07:41;9.73;;;6.77;;
21101;SDS011;10709;49.006;12.100;2023-03-21T00:10:08;9.70;;;6.83;;
21101;SDS011;10709;49.006;12.100;2023-03-21T00:12:44;9.93;;;6.67;;
21101;SDS011;10709;49.006;12.100;2023-03-21T00:15:11;10.30;;;7.10;;
21101;SDS011;10709;49.006;12.100;2023-03-21T00:17:38;11.03;;;7.13;;
21101;SDS011;10709;49.006;12.100;2023-03-21T00:20:06;9.83;;;6.90;;
21101;SDS011;10709;49.006;12.100;2023-03-21T00:22:37;8.27;;;6.67;;
21101;SDS011;10709;49.006;12.100;2023-03-21T00:25:03;9.30;;;6.43;;
21101;SDS011;10709;49.006;12.100;2023-03-21T00:27:30;10.03;;;6.70;;
21101;SDS011;10709;49.006;12.100;2023-03-21T00:30:18;8.40;;;5.97;;
21101;SDS011;10709;49.006;12.100;2023-03-21T00:32:45;7.60;;;5.80;;
21101;SDS011;10709;49.006;12.100;2023-03-21T00:35:21;7.77;;;5.73;;
21101;SDS011;10709;49.006;12.100;2023-03-21T00:38:08;9.90;;;7.10;;
21101;SDS011;10709;49.006;12.100;2023-03-21T00:40:34;9.67;;;6.77;;
21101;SDS011;10709;49.006;12.100;2023-03-21T00:43:13;7.60;;;6.07;;
21101;SDS011;10709;49.006;12.100;2023-03-21T00:45:43;7.83;;;5.60;;
21101;SDS011;10709;49.006;12.100;2023-03-21T00:48:09;7.00;;;5.70;;
21101;SDS011;10709;49.006;12.100;2023-03-21T00:50:36;8.13;;;6.10;;
21101;SDS011;10709;49.006;12.100;2023-03-21T00:53:04;6.73;;;5.40;;
21101;SDS011;10709;49.006;12.100;2023-03-21T00:55:32;10.20;;;6.10;;
21101;SDS011;10709;49.006;12.100;2023-03-21T00:57:58;7.37;;;6.00;;
21101;SDS011;10709;49.006;12.100;2023-03-21T01:00:27;10.27;;;6.43;;
21101;SDS011;10709;49.006;12.100;2023-03-21T01:02:55;7.07;;;5.80;;
21101;SDS011;10709;49.006;12.100;2023-03-21T01:05:43;8.33;;;5.73;;
21101;SDS011;10709;49.006;12.100;2023-03-21T01:08:35;8.20;;;5.40;;
21101;SDS011;10709;49.006;12.100;2023-03-21T01:11:17;7.47;;;5.20;;
21101;SDS011;10709;49.006;12.100;2023-03-21T01:13:46;7.50;;;5.77;;
21101;SDS011;10709;49.006;12.100;2023-03-21T01:16:25;5.67;;;4.87;;
21101;SDS011;10709;49.006;12.100;2023-03-21T01:18:52;6.87;;;5.43;;
21101;SDS011;10709;49.006;12.100;2023-03-21T01:21:19;8.63;;;6.27;;
21101;SDS011;10709;49.006;12.100;2023-03-21T01:23:45;8.80;;;5.80;;
21101;SDS011;10709;49.006;12.100;2023-03-21T01:26:12;7.73;;;5.63;;
21101;SDS011;10709;49.006;12.100;2023-03-21T01:28:41;8.67;;;5.93;;
21101;SDS011;10709;49.006;12.100;2023-03-21T01:31:09;7.53;;;5.57;;
21101;SDS011;10709;49.006;12.100;2023-03-21T01:33:38;7.90;;;6.33;;
21101;SDS011;10709;49.006;12.100;2023-03-21T01:36:04;8.63;;;6.40;;
21101;SDS011;10709;49.006;12.100;2023-03-21T01:38:39;11.87;;;8.23;;
21101;SDS011;10709;49.006;12.100;2023-03-21T01:41:06;8.53;;;6.83;;
21101;SDS011;10709;49.006;12.100;2023-03-21T01:43:45;10.80;;;7.97;;
21101;SDS011;10709;49.006;12.100;2023-03-21T01:46:25;10.47;;;7.50;;
21101;SDS011;10709;49.006;12.100;2023-03-21T01:51:40;9.70;;;7.00;;
21101;SDS011;10709;49.006;12.100;2023-03-21T01:54:23;9.70;;;6.83;;
21101;SDS011;10709;49.006;12.100;2023-03-21T01:56:54;8.80;;;6.67;;
21101;SDS011;10709;49.006;12.100;2023-03-21T01:59:28;8.47;;;6.40;;
21101;SDS011;10709;49.006;12.100;2023-03-21T02:02:20;8.73;;;6.40;;
21101;SDS011;10709;49.006;12.100;2023-03-21T02:04:50;9.77;;;6.63;;
21101;SDS011;10709;49.006;12.100;2023-03-21T02:07:23;9.37;;;6.43;;
21101;SDS011;10709;49.006;12.100;2023-03-21T02:09:54;7.57;;;6.50;;
21101;SDS011;10709;49.006;12.100;2023-03-21T02:12:23;8.03;;;6.53;;
21101;SDS011;10709;49.006;12.100;2023-03-21T02:14:51;10.03;;;6.57;;
21101;SDS011;10709;49.006;12.100;2023-03-21T02:28:52;7.00;;;5.63;;
21101;SDS011;10709;49.006;12.100;2023-03-21T02:31:25;8.30;;;6.07;;
21101;SDS011;10709;49.006;12.100;2023-03-21T02:36:45;8.07;;;5.90;;
21101;SDS011;10709;49.006;12.100;2023-03-21T02:39:20;7.40;;;5.90;;
21101;SDS011;10709;49.006;12.100;2023-03-21T02:44:22;8.17;;;5.80;;
21101;SDS011;10709;49.006;12.100;2023-03-21T02:46:57;9.03;;;6.47;;
21101;SDS011;10709;49.006;12.100;2023-03-21T02:49:34;7.23;;;5.90;;
21101;SDS011;10709;49.006;12.100;2023-03-21T02:52:08;8.80;;;6.30;;
21101;SDS011;10709;49.006;12.100;2023-03-21T02:54:53;9.27;;;6.50;;
21101;SDS011;10709;49.006;12.100;2023-03-21T02:57:21;7.83;;;6.13;;
21101;SDS011;10709;49.006;12.100;2023-03-21T02:59:54;8.30;;;6.17;;
21101;SDS011;10709;49.006;12.100;2023-03-21T03:02:30;9.00;;;5.97;;
21101;SDS011;10709;49.006;12.100;2023-03-21T03:04:56;6.90;;;5.50;;
21101;SDS011;10709;49.006;12.100;2023-03-21T03:07:29;8.17;;;6.03;;
21101;SDS011;10709;49.006;12.100;2023-03-21T03:10:20;7.47;;;5.50;;
21101;SDS011;10709;49.006;12.100;2023-03-21T03:15:53;8.17;;;6.00;;
21101;SDS011;10709;49.006;12.100;2023-03-21T03:18:51;6.73;;;5.40;;
21101;SDS011;10709;49.006;12.100;2023-03-21T03:24:14;8.87;;;6.07;;
21101;SDS011;10709;49.006;12.100;2023-03-21T03:29:33;7.13;;;5.73;;
21101;SDS011;10709;49.006;12.100;2023-03-21T03:32:04;8.50;;;5.83;;
21101;SDS011;10709;49.006;12.100;2023-03-21T03:34:39;7.00;;;5.70;;
21101;SDS011;10709;49.006;12.100;2023-03-21T03:37:10;8.13;;;6.10;;
21101;SDS011;10709;49.006;12.100;2023-03-21T03:39:45;7.30;;;5.50;;
21101;SDS011;10709;49.006;12.100;2023-03-21T03:42:17;8.57;;;5.83;;
21101;SDS011;10709;49.006;12.100;2023-03-21T03:44:54;7.00;;;5.53;;
21101;SDS011;10709;49.006;12.100;2023-03-21T03:47:36;6.67;;;5.40;;
21101;SDS011;10709;49.006;12.100;2023-03-21T03:53:14;7.47;;;6.10;;
21101;SDS011;10709;49.006;12.100;2023-03-21T03:55:44;9.53;;;5.80;;
21101;SDS011;10709;49.006;12.100;2023-03-21T03:58:11;7.97;;;5.80;;
21101;SDS011;10709;49.006;12.100;2023-03-21T04:00:48;11.93;;;6.10;;
21101;SDS011;10709;49.006;12.100;2023-03-21T04:03:15;7.43;;;5.37;;
21101;SDS011;10709;49.006;12.100;2023-03-21T04:05:42;8.20;;;6.00;;
21101;SDS011;10709;49.006;12.100;2023-03-21T04:08:11;8.70;;;6.33;;
21101;SDS011;10709;49.006;12.100;2023-03-21T04:10:40;6.90;;;5.50;;
21101;SDS011;10709;49.006;12.100;2023-03-21T04:13:07;7.70;;;5.97;;
21101;SDS011;10709;49.006;12.100;2023-03-21T04:15:35;7.43;;;5.50;;
21101;SDS011;10709;49.006;12.100;2023-03-21T04:18:01;7.53;;;5.70;;
21101;SDS011;10709;49.006;12.100;2023-03-21T04:20:28;7.73;;;6.07;;
21101;SDS011;10709;49.006;12.100;2023-03-21T04:23:08;6.77;;;5.47;;
21101;SDS011;10709;49.006;12.100;2023-03-21T04:25:34;8.80;;;6.33;;
21101;SDS011;10709;49.006;12.100;2023-03-21T04:28:12;8.73;;;6.10;;
21101;SDS011;10709;49.006;12.100;2023-03-21T04:30:39;8.70;;;6.97;;
21101;SDS011;10709;49.006;12.100;2023-03-21T04:33:14;6.80;;;5.80;;
21101;SDS011;10709;49.006;12.100;2023-03-21T04:35:40;8.60;;;5.83;;
21101;SDS011;10709;49.006;12.100;2023-03-21T04:38:07;9.93;;;6.80;;
21101;SDS011;10709;49.006;12.100;2023-03-21T04:40:34;6.47;;;5.43;;
21101;SDS011;10709;49.006;12.100;2023-03-21T04:43:01;7.97;;;5.43;;
21101;SDS011;10709;49.006;12.100;2023-03-21T04:45:27;7.37;;;5.57;;
21101;SDS011;10709;49.006;12.100;2023-03-21T04:47:54;7.27;;;5.37;;
21101;SDS011;10709;49.006;12.100;2023-03-21T04:50:21;6.50;;;5.40;;
21101;SDS011;10709;49.006;12.100;2023-03-21T04:52:48;6.77;;;5.27;;
21101;SDS011;10709;49.006;12.100;2023-03-21T04:55:14;6.37;;;5.00;;
21101;SDS011;10709;49.006;12.100;2023-03-21T04:57:41;7.27;;;5.33;;
21101;SDS011;10709;49.006;12.100;2023-03-21T05:00:08;6.53;;;5.30;;
21101;SDS011;10709;49.006;12.100;2023-03-21T05:02:41;7.67;;;5.80;;
21101;SDS011;10709;49.006;12.100;2023-03-21T05:05:07;9.73;;;6.03;;
21101;SDS011;10709;49.006;12.100;2023-03-21T05:07:37;7.27;;;5.77;;
21101;SDS011;10709;49.006;12.100;2023-03-21T05:10:08;8.43;;;5.80;;
21101;SDS011;10709;49.006;12.100;2023-03-21T05:12:37;7.97;;;5.90;;
21101;SDS011;10709;49.006;12.100;2023-03-21T05:15:03;7.60;;;6.03;;
21101;SDS011;10709;49.006;12.100;2023-03-21T05:17:31;8.53;;;6.30;;
21101;SDS011;10709;49.006;12.100;2023-03-21T05:19:57;9.60;;;6.83;;
21101;SDS011;10709;49.006;12.100;2023-03-21T05:22:24;8.33;;;5.67;;
21101;SDS011;10709;49.006;12.100;2023-03-21T05:24:52;11.07;;;6.83;;
21101;SDS011;10709;49.006;12.100;2023-03-21T05:27:21;8.37;;;5.93;;
21101;SDS011;10709;49.006;12.100;2023-03-21T05:30:05;9.60;;;6.30;;
21101;SDS011;10709;49.006;12.100;2023-03-21T05:32:36;10.97;;;7.37;;
21101;SDS011;10709;49.006;12.100;2023-03-21T05:35:02;8.47;;;6.33;;
21101;SDS011;10709;49.006;12.100;2023-03-21T05:37:29;9.40;;;6.67;;
21101;SDS011;10709;49.006;12.100;2023-03-21T05:39:55;9.07;;;6.30;;
21101;SDS011;10709;49.006;12.100;2023-03-21T05:42:22;8.40;;;6.03;;
21101;SDS011;10709;49.006;12.100;2023-03-21T05:44:48;8.80;;;6.60;;
21101;SDS011;10709;49.006;12.100;2023-03-21T05:47:16;8.13;;;6.63;;
21101;SDS011;10709;49.006;12.100;2023-03-21T05:49:43;8.57;;;6.63;;
21101;SDS011;10709;49.006;12.100;2023-03-21T05:52:11;8.87;;;6.53;;
21101;SDS011;10709;49.006;12.100;2023-03-21T05:54:37;8.77;;;6.50;;
21101;SDS011;10709;49.006;12.100;2023-03-21T05:57:04;7.43;;;6.07;;
21101;SDS011;10709;49.006;12.100;2023-03-21T05:59:30;7.47;;;5.80;;
21101;SDS011;10709;49.006;12.100;2023-03-21T06:01:57;8.43;;;6.37;;
21101;SDS011;10709;49.006;12.100;2023-03-21T06:04:24;12.33;;;7.90;;
21101;SDS011;10709;49.006;12.100;2023-03-21T06:06:50;10.77;;;7.67;;
21101;SDS011;10709;49.006;12.100;2023-03-21T06:09:19;7.57;;;6.60;;
21101;SDS011;10709;49.006;12.100;2023-03-21T06:11:47;10.23;;;7.17;;
21101;SDS011;10709;49.006;12.100;2023-03-21T06:14:17;10.10;;;7.10;;
21101;SDS011;10709;49.006;12.100;2023-03-21T06:16:44;12.63;;;7.67;;
21101;SDS011;10709;49.006;12.100;2023-03-21T06:19:11;8.37;;;7.30;;
21101;SDS011;10709;49.006;12.100;2023-03-21T06:21:37;9.27;;;7.30;;
21101;SDS011;10709;49.006;12.100;2023-03-21T06:24:04;7.80;;;6.37;;
21101;SDS011;10709;49.006;12.100;2023-03-21T06:26:31;9.70;;;7.27;;
21101;SDS011;10709;49.006;12.100;2023-03-21T06:28:58;8.93;;;7.27;;
21101;SDS011;10709;49.006;12.100;2023-03-21T06:31:24;10.17;;;7.60;;
21101;SDS011;10709;49.006;12.100;2023-03-21T06:33:52;11.17;;;7.30;;
21101;SDS011;10709;49.006;12.100;2023-03-21T06:36:18;9.47;;;6.90;;
21101;SDS011;10709;49.006;12.100;2023-03-21T06:38:45;10.37;;;7.20;;
21101;SDS011;10709;49.006;12.100;2023-03-21T06:41:12;10.80;;;8.50;;
21101;SDS011;10709;49.006;12.100;2023-03-21T06:43:38;10.33;;;7.57;;
21101;SDS011;10709;49.006;12.100;2023-03-21T06:46:05;9.50;;;7.40;;
21101;SDS011;10709;49.006;12.100;2023-03-21T06:48:32;10.10;;;7.90;;
21101;SDS011;10709;49.006;12.100;2023-03-21T06:50:58;10.40;;;7.50;;
21101;SDS011;10709;49.006;12.100;2023-03-21T06:53:25;27.20;;;8.40;;
21101;SDS011;10709;49.006;12.100;2023-03-21T06:55:55;15.73;;;7.53;;
21101;SDS011;10709;49.006;12.100;2023-03-21T06:58:22;11.67;;;7.37;;
21101;SDS011;10709;49.006;12.100;2023-03-21T07:00:48;8.53;;;6.70;;
21101;SDS011;10709;49.006;12.100;2023-03-21T07:03:15;9.97;;;7.50;;
21101;SDS011;10709;49.006;12.100;2023-03-21T07:05:42;11.90;;;8.63;;
21101;SDS011;10709;49.006;12.100;2023-03-21T07:08:08;9.13;;;7.40;;
21101;SDS011;10709;49.006;12.100;2023-03-21T07:10:38;10.37;;;7.73;;
21101;SDS011;10709;49.006;12.100;2023-03-21T07:13:06;9.87;;;7.90;;
21101;SDS011;10709;49.006;12.100;2023-03-21T07:15:33;9.93;;;7.30;;
21101;SDS011;10709;49.006;12.100;2023-03-21T07:18:04;9.73;;;7.90;;
21101;SDS011;10709;49.006;12.100;2023-03-21T07:20:30;10.67;;;7.40;;
21101;SDS011;10709;49.006;12.100;2023-03-21T07:22:57;8.93;;;7.03;;
21101;SDS011;10709;49.006;12.100;2023-03-21T07:25:24;10.23;;;7.17;;
21101;SDS011;10709;49.006;12.100;2023-03-21T07:27:50;8.93;;;6.93;;
21101;SDS011;10709;49.006;12.100;2023-03-21T07:30:17;10.60;;;7.40;;
21101;SDS011;10709;49.006;12.100;2023-03-21T07:32:44;10.27;;;6.87;;
21101;SDS011;10709;49.006;12.100;2023-03-21T07:35:11;10.33;;;7.23;;
21101;SDS011;10709;49.006;12.100;2023-03-21T07:37:39;10.40;;;6.90;;
21101;SDS011;10709;49.006;12.100;2023-03-21T07:40:06;10.73;;;6.83;;
21101;SDS011;10709;49.006;12.100;2023-03-21T07:42:40;11.97;;;7.27;;
21101;SDS011;10709;49.006;12.100;2023-03-21T07:45:08;9.93;;;7.33;;
21101;SDS011;10709;49.006;12.100;2023-03-21T07:47:36;13.30;;;8.10;;
21101;SDS011;10709;49.006;12.100;2023-03-21T07:50:02;9.27;;;7.50;;
21101;SDS011;10709;49.006;12.100;2023-03-21T07:52:29;12.67;;;7.60;;
21101;SDS011;10709;49.006;12.100;2023-03-21T07:54:56;12.73;;;7.27;;
21101;SDS011;10709;49.006;12.100;2023-03-21T07:57:23;12.33;;;7.97;;
21101;SDS011;10709;49.006;12.100;2023-03-21T07:59:49;13.63;;;8.03;;
21101;SDS011;10709;49.006;12.100;2023-03-21T08:02:16;10.60;;;8.87;;
21101;SDS011;10709;49.006;12.100;2023-03-21T08:04:43;13.20;;;8.17;;
21101;SDS011;10709;49.006;12.100;2023-03-21T08:07:10;14.87;;;8.33;;
21101;SDS011;10709;49.006;12.100;2023-03-21T08:09:36;13.50;;;8.90;;
21101;SDS011;10709;49.006;12.100;2023-03-21T08:12:04;14.37;;;8.37;;
21101;SDS011;10709;49.006;12.100;2023-03-21T08:14:31;11.97;;;8.77;;
21101;SDS011;10709;49.006;12.100;2023-03-21T08:16:58;15.37;;;8.50;;
21101;SDS011;10709;49.006;12.100;2023-03-21T08:19:25;12.63;;;8.20;;
21101;SDS011;10709;49.006;12.100;2023-03-21T08:21:52;13.53;;;8.27;;
21101;SDS011;10709;49.006;12.100;2023-03-21T08:24:18;12.10;;;7.77;;
21101;SDS011;10709;49.006;12.100;2023-03-21T08:26:45;12.50;;;8.10;;
21101;SDS011;10709;49.006;12.100;2023-03-21T08:29:12;13.43;;;8.37;;
21101;SDS011;10709;49.006;12.100;2023-03-21T08:31:39;10.43;;;7.43;;
21101;SDS011;10709;49.006;12.100;2023-03-21T08:34:06;13.60;;;8.23;;
21101;SDS011;10709;49.006;12.100;2023-03-21T08:36:34;12.17;;;8.90;;
21101;SDS011;10709;49.006;12.100;2023-03-21T08:39:02;12.23;;;8.63;;
21101;SDS011;10709;49.006;12.100;2023-03-21T08:41:34;10.83;;;7.43;;
21101;SDS011;10709;49.006;12.100;2023-03-21T08:44:02;10.33;;;7.73;;
21101;SDS011;10709;49.006;12.100;2023-03-21T08:46:31;16.60;;;8.40;;
21101;SDS011;10709;49.006;12.100;2023-03-21T08:48:58;10.70;;;7.10;;
21101;SDS011;10709;49.006;12.100;2023-03-21T08:51:24;9.57;;;6.80;;
21101;SDS011;10709;49.006;12.100;2023-03-21T08:53:51;11.27;;;6.50;;
21101;SDS011;10709;49.006;12.100;2023-03-21T08:56:17;12.70;;;7.00;;
21101;SDS011;10709;49.006;12.100;2023-03-21T08:58:44;9.47;;;6.33;;
21101;SDS011;10709;49.006;12.100;2023-03-21T09:01:10;12.73;;;6.10;;
21101;SDS011;10709;49.006;12.100;2023-03-21T09:03:41;12.50;;;5.40;;
21101;SDS011;10709;49.006;12.100;2023-03-21T09:06:08;7.43;;;4.70;;
21101;SDS011;10709;49.006;12.100;2023-03-21T09:08:37;7.00;;;4.87;;
21101;SDS011;10709;49.006;12.100;2023-03-21T09:11:03;8.57;;;4.67;;
21101;SDS011;10709;49.006;12.100;2023-03-21T09:13:30;28.33;;;5.37;;
21101;SDS011;10709;49.006;12.100;2023-03-21T09:15:58;15.33;;;4.40;;
21101;SDS011;10709;49.006;12.100;2023-03-21T09:18:27;6.53;;;3.70;;
21101;SDS011;10709;49.006;12.100;2023-03-21T09:21:14;6.43;;;3.40;;
21101;SDS011;10709;49.006;12.100;2023-03-21T09:23:43;11.83;;;3.23;;
21101;SDS011;10709;49.006;12.100;2023-03-21T09:26:10;6.03;;;2.43;;
21101;SDS011;10709;49.006;12.100;2023-03-21T09:28:37;6.87;;;2.40;;
21101;SDS011;10709;49.006;12.100;2023-03-21T09:31:05;6.70;;;2.93;;
21101;SDS011;10709;49.006;12.100;2023-03-21T09:33:36;5.13;;;2.40;;
21101;SDS011;10709;49.006;12.100;2023-03-21T09:36:06;5.87;;;2.87;;
21101;SDS011;10709;49.006;12.100;2023-03-21T09:38:44;6.27;;;2.63;;
21101;SDS011;10709;49.006;12.100;2023-03-21T09:44:34;3.63;;;2.43;;
21101;SDS011;10709;49.006;12.100;2023-03-21T09:47:20;5.53;;;2.50;;
21101;SDS011;10709;49.006;12.100;2023-03-21T09:49:55;5.30;;;2.80;;
21101;SDS011;10709;49.006;12.100;2023-03-21T09:52:48;6.80;;;2.83;;
21101;SDS011;10709;49.006;12.100;2023-03-21T09:55:21;4.40;;;2.47;;
21101;SDS011;10709;49.006;12.100;2023-03-21T09:57:58;6.63;;;2.73;;
21101;SDS011;10709;49.006;12.100;2023-03-21T10:00:48;6.83;;;3.10;;
21101;SDS011;10709;49.006;12.100;2023-03-21T10:03:20;4.33;;;2.60;;
21101;SDS011;10709;49.006;12.100;2023-03-21T10:05:50;6.23;;;2.80;;
21101;SDS011;10709;49.006;12.100;2023-03-21T10:08:22;5.53;;;2.70;;
21101;SDS011;10709;49.006;12.100;2023-03-21T10:10:54;4.20;;;2.40;;
21101;SDS011;10709;49.006;12.100;2023-03-21T10:13:31;6.83;;;2.57;;
21101;SDS011;10709;49.006;12.100;2023-03-21T10:16:03;3.93;;;2.13;;
21101;SDS011;10709;49.006;12.100;2023-03-21T10:18:39;5.13;;;2.33;;
21101;SDS011;10709;49.006;12.100;2023-03-21T10:21:10;4.23;;;2.20;;
21101;SDS011;10709;49.006;12.100;2023-03-21T10:24:01;4.33;;;2.03;;
21101;SDS011;10709;49.006;12.100;2023-03-21T10:26:28;4.23;;;2.30;;
21101;SDS011;10709;49.006;12.100;2023-03-21T10:28:56;3.43;;;2.23;;
21101;SDS011;10709;49.006;12.100;2023-03-21T10:31:26;3.33;;;2.00;;
21101;SDS011;10709;49.006;12.100;2023-03-21T10:33:56;4.30;;;2.43;;
21101;SDS011;10709;49.006;12.100;2023-03-21T10:36:28;5.80;;;2.57;;
21101;SDS011;10709;49.006;12.100;2023-03-21T10:41:30;4.00;;;2.40;;
21101;SDS011;10709;49.006;12.100;2023-03-21T10:44:05;6.33;;;2.80;;
21101;SDS011;10709;49.006;12.100;2023-03-21T10:46:36;4.63;;;2.63;;
21101;SDS011;10709;49.006;12.100;2023-03-21T10:49:05;4.30;;;2.53;;
21101;SDS011;10709;49.006;12.100;2023-03-21T10:51:34;5.37;;;2.90;;
21101;SDS011;10709;49.006;12.100;2023-03-21T10:54:04;4.87;;;2.50;;
21101;SDS011;10709;49.006;12.100;2023-03-21T10:56:37;6.60;;;2.93;;
21101;SDS011;10709;49.006;12.100;2023-03-21T10:59:09;4.33;;;2.93;;
21101;SDS011;10709;49.006;12.100;2023-03-21T11:01:47;6.60;;;3.27;;
21101;SDS011;10709;49.006;12.100;2023-03-21T11:04:19;3.63;;;2.70;;
21101;SDS011;10709;49.006;12.100;2023-03-21T11:06:54;4.03;;;2.70;;
21101;SDS011;10709;49.006;12.100;2023-03-21T11:09:23;3.53;;;2.30;;
21101;SDS011;10709;49.006;12.100;2023-03-21T11:14:25;4.80;;;2.30;;
21101;SDS011;10709;49.006;12.100;2023-03-21T11:16:58;5.17;;;2.97;;
21101;SDS011;10709;49.006;12.100;2023-03-21T11:19:27;4.70;;;2.70;;
21101;SDS011;10709;49.006;12.100;2023-03-21T11:21:58;4.53;;;2.60;;
21101;SDS011;10709;49.006;12.100;2023-03-21T11:24:30;6.23;;;4.27;;
21101;SDS011;10709;49.006;12.100;2023-03-21T11:26:58;6.07;;;4.10;;
21101;SDS011;10709;49.006;12.100;2023-03-21T11:29:33;7.17;;;4.50;;
21101;SDS011;10709;49.006;12.100;2023-03-21T11:32:12;6.90;;;4.13;;
21101;SDS011;10709;49.006;12.100;2023-03-21T11:34:50;6.70;;;3.90;;
21101;SDS011;10709;49.006;12.100;2023-03-21T11:37:44;5.57;;;4.27;;
21101;SDS011;10709;49.006;12.100;2023-03-21T11:42:49;7.33;;;4.57;;
21101;SDS011;10709;49.006;12.100;2023-03-21T11:45:19;9.00;;;4.60;;
21101;SDS011;10709;49.006;12.100;2023-03-21T11:47:53;6.43;;;4.27;;
21101;SDS011;10709;49.006;12.100;2023-03-21T11:50:31;7.20;;;3.90;;
21101;SDS011;10709;49.006;12.100;2023-03-21T11:55:53;5.60;;;3.87;;
21101;SDS011;10709;49.006;12.100;2023-03-21T12:09:51;5.43;;;3.80;;
21101;SDS011;10709;49.006;12.100;2023-03-21T12:12:41;6.67;;;4.30;;
21101;SDS011;10709;49.006;12.100;2023-03-21T12:23:00;6.27;;;4.17;;
21101;SDS011;10709;49.006;12.100;2023-03-21T12:25:53;6.70;;;4.00;;
21101;SDS011;10709;49.006;12.100;2023-03-21T12:39:21;6.83;;;4.00;;
21101;SDS011;10709;49.006;12.100;2023-03-21T12:44:48;6.93;;;3.23;;
21101;SDS011;10709;49.006;12.100;2023-03-21T12:47:24;5.57;;;3.73;;
21101;SDS011;10709;49.006;12.100;2023-03-21T12:49:55;5.37;;;3.30;;
21101;SDS011;10709;49.006;12.100;2023-03-21T12:52:31;4.33;;;3.50;;
21101;SDS011;10709;49.006;12.100;2023-03-21T12:55:05;5.47;;;3.53;;
21101;SDS011;10709;49.006;12.100;2023-03-21T12:57:55;5.37;;;3.10;;
21101;SDS011;10709;49.006;12.100;2023-03-21T13:00:40;4.13;;;2.90;;
21101;SDS011;10709;49.006;12.100;2023-03-21T13:03:11;3.80;;;3.00;;
21101;SDS011;10709;49.006;12.100;2023-03-21T13:05:55;5.10;;;3.53;;
21101;SDS011;10709;49.006;12.100;2023-03-21T13:08:27;4.23;;;3.63;;
21101;SDS011;10709;49.006;12.100;2023-03-21T13:10:55;5.57;;;3.90;;
21101;SDS011;10709;49.006;12.100;2023-03-21T13:13:33;4.33;;;3.40;;
21101;SDS011;10709;49.006;12.100;2023-03-21T13:26:33;3.77;;;3.30;;
21101;SDS011;10709;49.006;12.100;2023-03-21T13:32:04;5.07;;;3.63;;
21101;SDS011;10709;49.006;12.100;2023-03-21T13:34:40;6.30;;;3.97;;
21101;SDS011;10709;49.006;12.100;2023-03-21T13:37:15;5.70;;;3.70;;
21101;SDS011;10709;49.006;12.100;2023-03-21T13:39:44;6.83;;;4.17;;
21101;SDS011;10709;49.006;12.100;2023-03-21T13:42:22;4.60;;;3.60;;
21101;SDS011;10709;49.006;12.100;2023-03-21T13:44:54;7.33;;;4.23;;
21101;SDS011;10709;49.006;12.100;2023-03-21T13:55:34;6.03;;;3.83;;
21101;SDS011;10709;49.006;12.100;2023-03-21T14:04:03;6.47;;;2.90;;
21101;SDS011;10709;49.006;12.100;2023-03-21T14:06:41;3.40;;;2.40;;
21101;SDS011;10709;49.006;12.100;2023-03-21T14:09:17;3.93;;;3.10;;
21101;SDS011;10709;49.006;12.100;2023-03-21T14:11:48;5.30;;;3.10;;
21101;SDS011;10709;49.006;12.100;2023-03-21T14:14:22;5.50;;;3.40;;
21101;SDS011;10709;49.006;12.100;2023-03-21T14:16:51;4.77;;;3.17;;
21101;SDS011;10709;49.006;12.100;2023-03-21T14:19:19;3.87;;;2.67;;
21101;SDS011;10709;49.006;12.100;2023-03-21T14:21:47;3.43;;;2.70;;
21101;SDS011;10709;49.006;12.100;2023-03-21T14:24:17;6.10;;;3.43;;
21101;SDS011;10709;49.006;12.100;2023-03-21T14:26:51;4.17;;;3.50;;
21101;SDS011;10709;49.006;12.100;2023-03-21T14:29:22;5.73;;;3.40;;
21101;SDS011;10709;49.006;12.100;2023-03-21T14:31:53;4.03;;;3.07;;
21101;SDS011;10709;49.006;12.100;2023-03-21T14:34:22;4.47;;;3.40;;
21101;SDS011;10709;49.006;12.100;2023-03-21T14:36:51;4.50;;;2.73;;
21101;SDS011;10709;49.006;12.100;2023-03-21T14:39:28;6.37;;;2.93;;
21101;SDS011;10709;49.006;12.100;2023-03-21T14:42:02;3.73;;;2.47;;
21101;SDS011;10709;49.006;12.100;2023-03-21T14:47:20;4.13;;;2.10;;
21101;SDS011;10709;49.006;12.100;2023-03-21T14:49:48;5.13;;;2.80;;
21101;SDS011;10709;49.006;12.100;2023-03-21T14:52:18;3.70;;;2.50;;
21101;SDS011;10709;49.006;12.100;2023-03-21T14:54:50;4.93;;;2.30;;
21101;SDS011;10709;49.006;12.100;2023-03-21T14:57:20;3.47;;;2.70;;
21101;SDS011;10709;49.006;12.100;2023-03-21T14:59:51;4.57;;;2.60;;
21101;SDS011;10709;49.006;12.100;2023-03-21T15:05:24;4.70;;;2.97;;
21101;SDS011;10709;49.006;12.100;2023-03-21T15:08:01;3.87;;;2.80;;
21101;SDS011;10709;49.006;12.100;2023-03-21T15:10:32;3.67;;;2.70;;
21101;SDS011;10709;49.006;12.100;2023-03-21T15:13:00;4.50;;;2.50;;
21101;SDS011;10709;49.006;12.100;2023-03-21T15:15:37;3.60;;;2.43;;
21101;SDS011;10709;49.006;12.100;2023-03-21T15:18:05;3.90;;;2.50;;
21101;SDS011;10709;49.006;12.100;2023-03-21T15:20:34;3.97;;;2.70;;
21101;SDS011;10709;49.006;12.100;2023-03-21T15:23:04;6.23;;;3.37;;
21101;SDS011;10709;49.006;12.100;2023-03-21T15:25:37;4.80;;;2.90;;
21101;SDS011;10709;49.006;12.100;2023-03-21T15:28:04;5.23;;;3.10;;
21101;SDS011;10709;49.006;12.100;2023-03-21T15:30:32;6.63;;;3.43;;
21101;SDS011;10709;49.006;12.100;2023-03-21T15:33:06;5.90;;;3.43;;
21101;SDS011;10709;49.006;12.100;2023-03-21T15:35:36;4.03;;;2.93;;
21101;SDS011;10709;49.006;12.100;2023-03-21T15:38:05;3.40;;;2.70;;
21101;SDS011;10709;49.006;12.100;2023-03-21T15:40:32;5.10;;;2.60;;
21101;SDS011;10709;49.006;12.100;2023-03-21T15:43:03;2.97;;;2.57;;
21101;SDS011;10709;49.006;12.100;2023-03-21T15:45:32;4.77;;;2.70;;
21101;SDS011;10709;49.006;12.100;2023-03-21T15:48:05;3.50;;;2.53;;
21101;SDS011;10709;49.006;12.100;2023-03-21T15:50:35;7.97;;;2.83;;
21101;SDS011;10709;49.006;12.100;2023-03-21T15:53:05;3.43;;;2.50;;
21101;SDS011;10709;49.006;12.100;2023-03-21T15:55:43;3.83;;;2.60;;
21101;SDS011;10709;49.006;12.100;2023-03-21T15:58:14;4.43;;;2.80;;
21101;SDS011;10709;49.006;12.100;2023-03-21T16:00:48;3.73;;;2.60;;
21101;SDS011;10709;49.006;12.100;2023-03-21T16:03:21;3.57;;;2.37;;
21101;SDS011;10709;49.006;12.100;2023-03-21T16:06:02;3.33;;;2.30;;
21101;SDS011;10709;49.006;12.100;2023-03-21T16:08:52;3.07;;;2.60;;
21101;SDS011;10709;49.006;12.100;2023-03-21T16:11:37;5.70;;;2.70;;
21101;SDS011;10709;49.006;12.100;2023-03-21T16:14:08;4.63;;;2.53;;
21101;SDS011;10709;49.006;12.100;2023-03-21T16:16:35;3.13;;;2.23;;
21101;SDS011;10709;49.006;12.100;2023-03-21T16:19:03;3.77;;;2.73;;
21101;SDS011;10709;49.006;12.100;2023-03-21T16:21:30;3.00;;;2.33;;
21101;SDS011;10709;49.006;12.100;2023-03-21T16:23:59;3.57;;;2.50;;
21101;SDS011;10709;49.006;12.100;2023-03-21T16:26:28;3.20;;;2.50;;
21101;SDS011;10709;49.006;12.100;2023-03-21T16:28:57;6.20;;;2.30;;
21101;SDS011;10709;49.006;12.100;2023-03-21T16:31:24;3.33;;;2.30;;
21101;SDS011;10709;49.006;12.100;2023-03-21T16:33:53;3.13;;;2.37;;
21101;SDS011;10709;49.006;12.100;2023-03-21T16:36:20;5.67;;;2.60;;
21101;SDS011;10709;49.006;12.100;2023-03-21T16:38:49;4.27;;;2.00;;
21101;SDS011;10709;49.006;12.100;2023-03-21T16:41:18;3.33;;;2.30;;
21101;SDS011;10709;49.006;12.100;2023-03-21T16:43:46;4.63;;;2.43;;